Date,TemperatureHighF,TemperatureAvgF,TemperatureLowF,DewpointHighF,DewpointAvgF,DewpointLowF,HumidityHigh,HumidityAvg,HumidityLow,PressureMaxIn,PressureMinIn,WindSpeedMaxMPH,WindSpeedAvgMPH,GustSpeedMaxMPH,PrecipitationSumIn
2013-10-1,78.4,62.0,53.1,66.8,58.1,52.2,99,89,60,30.94,30.83,8,2,15,0.00
2013-10-2,79.3,62.6,50.6,68.6,59.0,49.9,99,89,62,30.96,30.86,7,1,13,0.01
2013-10-3,77.9,62.2,50.3,70.6,60.5,49.7,99,95,75,30.96,30.85,7,0,10,0.48
2013-10-4,80.2,69.0,63.1,71.0,66.4,62.5,99,92,70,30.92,30.88,7,1,12,0.05
2013-10-5,80.6,69.3,62.4,71.2,67.4,61.5,99,94,70,30.92,30.80,8,1,12,0.09
2013-10-6,81.5,72.0,61.5,71.1,67.2,59.2,99,86,67,30.80,30.55,14,3,23,0.09
2013-10-7,60.9,54.9,46.9,58.6,49.9,44.6,97,84,61,30.99,30.57,14,4,24,0.86
2013-10-8,68.4,53.0,41.1,54.8,46.7,40.3,99,82,43,31.19,30.99,5,0,8,0.00
2013-10-9,72.0,51.8,35.9,54.6,44.0,35.1,100,79,36,31.24,31.11,7,0,12,0.01
2013-10-10,72.9,49.9,36.6,54.8,44.5,35.8,99,85,32,31.14,31.00,5,0,8,0.00
2013-10-11,75.4,54.4,38.8,57.3,47.5,38.0,99,81,44,31.03,30.93,5,0,9,0.00
2013-10-12,79.1,59.3,42.2,65.2,54.4,41.1,99,85,59,31.02,30.93,8,1,12,0.00
2013-10-13,69.0,62.8,59.2,63.0,60.4,58.4,97,92,79,31.15,31.00,7,1,10,0.03
2013-10-14,64.1,55.1,41.0,58.1,48.9,39.9,97,81,58,31.23,31.14,6,1,12,0.00
2013-10-15,67.7,53.0,38.5,61.1,50.8,37.7,99,93,79,31.14,30.82,7,1,13,0.00
2013-10-16,69.6,59.6,46.6,64.9,58.3,45.8,98,96,84,30.82,30.65,12,3,21,1.30
2013-10-17,60.8,50.8,42.6,52.3,47.9,42.1,99,90,69,30.79,30.63,9,2,15,0.23
2013-10-18,64.0,52.6,44.8,48.5,46.1,43.1,95,80,51,30.85,30.72,12,4,18,0.04
2013-10-19,52.6,46.9,41.9,49.2,44.6,40.3,95,91,83,30.80,30.59,8,2,14,0.39
2013-10-20,60.0,46.5,37.2,45.0,40.6,35.7,96,82,50,30.87,30.76,12,3,18,0.00
2013-10-21,66.1,53.1,41.1,51.6,43.5,39.0,94,72,42,30.87,30.70,14,5,25,0.05
2013-10-22,51.9,44.7,38.8,49.0,37.7,31.1,95,78,47,30.81,30.70,9,4,20,0.13
2013-10-23,48.6,41.0,36.1,42.0,37.1,33.2,95,86,56,30.80,30.65,12,2,18,0.17
2013-10-24,42.2,36.5,34.5,39.0,34.9,32.9,97,94,86,31.02,30.78,13,4,18,0.51
2013-10-25,48.2,38.8,30.5,41.2,34.8,29.5,98,86,61,31.20,31.01,9,3,18,0.04
2013-10-26,46.2,40.6,31.7,38.7,32.3,29.4,95,73,57,31.09,30.73,15,6,26,0.11
2013-10-27,51.5,39.2,30.5,41.1,35.0,29.3,98,86,54,30.97,30.84,7,2,13,0.00
2013-10-28,57.1,39.9,28.0,45.1,35.8,27.0,99,87,56,31.24,30.97,6,0,12,0.00
2013-10-29,57.8,42.1,29.7,43.1,36.2,28.7,98,82,51,31.30,31.15,3,0,8,0.01
2013-10-30,66.2,47.1,30.8,49.0,40.7,29.8,98,82,46,31.15,30.93,8,1,14,0.00
2013-10-31,66.5,60.2,49.3,60.9,57.7,47.2,97,92,77,30.93,30.18,16,8,31,0.64